sensor_id;sensor_type;location;lat;lon;timestamp;P1;durP1;ratioP1;P2;durP2;ratioP2
40176;SDS011;31511;46.176;9.874;2022-08-03T00:02:00;3.45;;;1.90;;
40176;SDS011;31511;46.176;9.874;2022-08-03T00:04:46;4.15;;;2.00;;
40176;SDS011;31511;46.176;9.874;2022-08-03T00:07:30;4.25;;;2.03;;
40176;SDS011;31511;46.176;9.874;2022-08-03T00:10:15;2.42;;;2.00;;
40176;SDS011;31511;46.176;9.874;2022-08-03T00:13:00;2.70;;;2.13;;
40176;SDS011;31511;46.176;9.874;2022-08-03T00:15:45;3.60;;;2.40;;
40176;SDS011;31511;46.176;9.874;2022-08-03T00:18:30;3.28;;;2.30;;
40176;SDS011;31511;46.176;9.874;2022-08-03T00:21:15;2.58;;;2.08;;
40176;SDS011;31511;46.176;9.874;2022-08-03T00:24:00;3.92;;;2.08;;
40176;SDS011;31511;46.176;9.874;2022-08-03T00:26:44;2.15;;;1.65;;
40176;SDS011;31511;46.176;9.874;2022-08-03T00:29:30;6.93;;;2.40;;
40176;SDS011;31511;46.176;9.874;2022-08-03T00:32:16;3.80;;;2.33;;
40176;SDS011;31511;46.176;9.874;2022-08-03T00:35:01;4.43;;;2.40;;
40176;SDS011;31511;46.176;9.874;2022-08-03T00:37:46;1.88;;;1.58;;
40176;SDS011;31511;46.176;9.874;2022-08-03T00:40:31;3.08;;;1.80;;
40176;SDS011;31511;46.176;9.874;2022-08-03T00:43:15;4.15;;;2.30;;
40176;SDS011;31511;46.176;9.874;2022-08-03T00:46:01;3.30;;;2.40;;
40176;SDS011;31511;46.176;9.874;2022-08-03T00:48:45;2.53;;;1.63;;
40176;SDS011;31511;46.176;9.874;2022-08-03T00:51:30;2.83;;;2.10;;
40176;SDS011;31511;46.176;9.874;2022-08-03T00:54:15;4.35;;;2.10;;
40176;SDS011;31511;46.176;9.874;2022-08-03T00:57:00;2.78;;;1.88;;
40176;SDS011;31511;46.176;9.874;2022-08-03T00:59:45;4.45;;;2.85;;
40176;SDS011;31511;46.176;9.874;2022-08-03T01:02:30;1.90;;;1.67;;
40176;SDS011;31511;46.176;9.874;2022-08-03T01:05:15;2.50;;;2.08;;
40176;SDS011;31511;46.176;9.874;2022-08-03T01:14:06;3.67;;;2.15;;
40176;SDS011;31511;46.176;9.874;2022-08-03T01:19:59;2.60;;;2.00;;
40176;SDS011;31511;46.176;9.874;2022-08-03T01:25:54;4.53;;;2.38;;
40176;SDS011;31511;46.176;9.874;2022-08-03T01:31:35;6.40;;;2.30;;
40176;SDS011;31511;46.176;9.874;2022-08-03T01:34:21;3.38;;;2.47;;
40176;SDS011;31511;46.176;9.874;2022-08-03T01:37:10;2.55;;;2.13;;
40176;SDS011;31511;46.176;9.874;2022-08-03T01:39:58;2.88;;;2.30;;
40176;SDS011;31511;46.176;9.874;2022-08-03T01:42:46;2.95;;;2.25;;
40176;SDS011;31511;46.176;9.874;2022-08-03T01:45:31;2.75;;;2.20;;
40176;SDS011;31511;46.176;9.874;2022-08-03T01:48:16;2.35;;;1.52;;
40176;SDS011;31511;46.176;9.874;2022-08-03T01:51:03;2.40;;;1.98;;
40176;SDS011;31511;46.176;9.874;2022-08-03T01:53:49;2.83;;;2.20;;
40176;SDS011;31511;46.176;9.874;2022-08-03T01:56:34;5.20;;;2.70;;
40176;SDS011;31511;46.176;9.874;2022-08-03T01:59:21;4.70;;;2.55;;
40176;SDS011;31511;46.176;9.874;2022-08-03T02:02:09;2.65;;;2.25;;
40176;SDS011;31511;46.176;9.874;2022-08-03T02:04:55;3.78;;;2.28;;
40176;SDS011;31511;46.176;9.874;2022-08-03T02:07:41;3.83;;;2.40;;
40176;SDS011;31511;46.176;9.874;2022-08-03T02:10:28;3.55;;;2.28;;
40176;SDS011;31511;46.176;9.874;2022-08-03T02:13:14;2.45;;;2.25;;
40176;SDS011;31511;46.176;9.874;2022-08-03T02:16:02;3.72;;;2.67;;
40176;SDS011;31511;46.176;9.874;2022-08-03T02:18:47;6.95;;;2.63;;
40176;SDS011;31511;46.176;9.874;2022-08-03T02:21:32;2.55;;;2.35;;
40176;SDS011;31511;46.176;9.874;2022-08-03T02:24:20;4.30;;;2.70;;
40176;SDS011;31511;46.176;9.874;2022-08-03T02:27:09;2.85;;;2.30;;
40176;SDS011;31511;46.176;9.874;2022-08-03T02:29:59;3.08;;;2.33;;
40176;SDS011;31511;46.176;9.874;2022-08-03T02:32:47;5.82;;;2.38;;
40176;SDS011;31511;46.176;9.874;2022-08-03T02:35:34;5.03;;;2.35;;
40176;SDS011;31511;46.176;9.874;2022-08-03T02:38:22;3.78;;;2.40;;
40176;SDS011;31511;46.176;9.874;2022-08-03T02:41:14;7.00;;;2.33;;
40176;SDS011;31511;46.176;9.874;2022-08-03T02:44:00;3.28;;;1.88;;
40176;SDS011;31511;46.176;9.874;2022-08-03T02:46:47;5.70;;;2.58;;
40176;SDS011;31511;46.176;9.874;2022-08-03T02:49:32;3.00;;;2.35;;
40176;SDS011;31511;46.176;9.874;2022-08-03T02:52:20;4.93;;;2.50;;
40176;SDS011;31511;46.176;9.874;2022-08-03T02:55:08;3.78;;;2.33;;
40176;SDS011;31511;46.176;9.874;2022-08-03T02:57:55;4.95;;;2.10;;
40176;SDS011;31511;46.176;9.874;2022-08-03T03:00:40;4.80;;;2.50;;
40176;SDS011;31511;46.176;9.874;2022-08-03T03:03:29;5.05;;;2.28;;
40176;SDS011;31511;46.176;9.874;2022-08-03T03:06:15;7.28;;;3.83;;
40176;SDS011;31511;46.176;9.874;2022-08-03T03:09:01;6.57;;;3.30;;
40176;SDS011;31511;46.176;9.874;2022-08-03T03:11:45;8.85;;;4.45;;
40176;SDS011;31511;46.176;9.874;2022-08-03T03:14:32;5.72;;;2.83;;
40176;SDS011;31511;46.176;9.874;2022-08-03T03:17:17;3.40;;;1.92;;
40176;SDS011;31511;46.176;9.874;2022-08-03T03:20:04;7.63;;;2.63;;
40176;SDS011;31511;46.176;9.874;2022-08-03T03:22:49;2.90;;;2.60;;
40176;SDS011;31511;46.176;9.874;2022-08-03T03:25:34;3.33;;;2.83;;
40176;SDS011;31511;46.176;9.874;2022-08-03T03:28:22;2.95;;;2.70;;
40176;SDS011;31511;46.176;9.874;2022-08-03T03:31:08;3.20;;;2.22;;
40176;SDS011;31511;46.176;9.874;2022-08-03T03:33:56;5.00;;;2.60;;
40176;SDS011;31511;46.176;9.874;2022-08-03T03:36:41;3.20;;;2.33;;
40176;SDS011;31511;46.176;9.874;2022-08-03T03:39:27;5.82;;;2.95;;
40176;SDS011;31511;46.176;9.874;2022-08-03T03:42:13;4.88;;;2.92;;
40176;SDS011;31511;46.176;9.874;2022-08-03T03:45:01;3.90;;;2.53;;
40176;SDS011;31511;46.176;9.874;2022-08-03T03:47:46;2.65;;;2.35;;
40176;SDS011;31511;46.176;9.874;2022-08-03T03:50:32;12.10;;;2.63;;
40176;SDS011;31511;46.176;9.874;2022-08-03T03:53:17;3.15;;;2.60;;
40176;SDS011;31511;46.176;9.874;2022-08-03T03:56:03;2.60;;;2.20;;
40176;SDS011;31511;46.176;9.874;2022-08-03T03:58:48;4.47;;;2.95;;
40176;SDS011;31511;46.176;9.874;2022-08-03T04:01:33;4.93;;;3.20;;
40176;SDS011;31511;46.176;9.874;2022-08-03T04:04:18;4.53;;;2.45;;
40176;SDS011;31511;46.176;9.874;2022-08-03T04:07:23;5.07;;;2.50;;
40176;SDS011;31511;46.176;9.874;2022-08-03T04:10:30;4.60;;;2.75;;
40176;SDS011;31511;46.176;9.874;2022-08-03T04:13:37;3.17;;;2.40;;
40176;SDS011;31511;46.176;9.874;2022-08-03T04:16:25;2.60;;;1.85;;
40176;SDS011;31511;46.176;9.874;2022-08-03T04:19:58;2.60;;;2.25;;
40176;SDS011;31511;46.176;9.874;2022-08-03T04:22:22;2.58;;;2.22;;
40176;SDS011;31511;46.176;9.874;2022-08-03T04:25:09;2.08;;;1.88;;
40176;SDS011;31511;46.176;9.874;2022-08-03T04:28:00;4.18;;;2.33;;
40176;SDS011;31511;46.176;9.874;2022-08-03T04:30:46;2.80;;;2.25;;
40176;SDS011;31511;46.176;9.874;2022-08-03T04:33:33;4.50;;;2.75;;
40176;SDS011;31511;46.176;9.874;2022-08-03T04:36:27;2.47;;;2.28;;
40176;SDS011;31511;46.176;9.874;2022-08-03T04:39:26;2.97;;;2.55;;
40176;SDS011;31511;46.176;9.874;2022-08-03T04:42:12;2.45;;;2.25;;
40176;SDS011;31511;46.176;9.874;2022-08-03T04:44:59;4.10;;;2.70;;
40176;SDS011;31511;46.176;9.874;2022-08-03T04:47:45;3.22;;;2.90;;
40176;SDS011;31511;46.176;9.874;2022-08-03T04:50:30;5.00;;;2.92;;
40176;SDS011;31511;46.176;9.874;2022-08-03T04:53:16;4.85;;;2.95;;
40176;SDS011;31511;46.176;9.874;2022-08-03T04:56:04;5.65;;;2.90;;
40176;SDS011;31511;46.176;9.874;2022-08-03T04:58:49;2.67;;;2.40;;
40176;SDS011;31511;46.176;9.874;2022-08-03T05:01:33;3.28;;;2.25;;
40176;SDS011;31511;46.176;9.874;2022-08-03T05:04:18;2.53;;;2.30;;
40176;SDS011;31511;46.176;9.874;2022-08-03T05:07:03;3.25;;;2.55;;
40176;SDS011;31511;46.176;9.874;2022-08-03T05:09:47;3.45;;;2.58;;
40176;SDS011;31511;46.176;9.874;2022-08-03T05:12:32;4.07;;;2.78;;
40176;SDS011;31511;46.176;9.874;2022-08-03T05:15:16;4.10;;;2.58;;
40176;SDS011;31511;46.176;9.874;2022-08-03T05:18:01;5.18;;;2.58;;
40176;SDS011;31511;46.176;9.874;2022-08-03T05:20:45;3.03;;;2.15;;
40176;SDS011;31511;46.176;9.874;2022-08-03T05:23:30;9.73;;;2.67;;
40176;SDS011;31511;46.176;9.874;2022-08-03T05:26:15;3.13;;;2.80;;
40176;SDS011;31511;46.176;9.874;2022-08-03T05:29:00;4.25;;;2.88;;
40176;SDS011;31511;46.176;9.874;2022-08-03T05:31:44;5.13;;;3.13;;
40176;SDS011;31511;46.176;9.874;2022-08-03T05:34:29;6.03;;;3.00;;
40176;SDS011;31511;46.176;9.874;2022-08-03T05:37:15;4.28;;;3.08;;
40176;SDS011;31511;46.176;9.874;2022-08-03T05:40:00;4.00;;;3.10;;
40176;SDS011;31511;46.176;9.874;2022-08-03T05:42:44;6.80;;;3.33;;
40176;SDS011;31511;46.176;9.874;2022-08-03T05:45:31;3.65;;;2.95;;
40176;SDS011;31511;46.176;9.874;2022-08-03T05:48:15;2.67;;;2.47;;
40176;SDS011;31511;46.176;9.874;2022-08-03T05:51:00;4.35;;;2.28;;
40176;SDS011;31511;46.176;9.874;2022-08-03T05:53:45;7.07;;;3.25;;
40176;SDS011;31511;46.176;9.874;2022-08-03T05:56:30;12.77;;;3.33;;
40176;SDS011;31511;46.176;9.874;2022-08-03T05:59:15;5.60;;;3.50;;
40176;SDS011;31511;46.176;9.874;2022-08-03T06:02:00;5.97;;;3.05;;
40176;SDS011;31511;46.176;9.874;2022-08-03T06:04:44;4.45;;;3.95;;
40176;SDS011;31511;46.176;9.874;2022-08-03T06:07:29;7.28;;;3.28;;
40176;SDS011;31511;46.176;9.874;2022-08-03T06:10:14;7.32;;;4.05;;
40176;SDS011;31511;46.176;9.874;2022-08-03T06:12:59;11.02;;;4.68;;
40176;SDS011;31511;46.176;9.874;2022-08-03T06:15:43;5.93;;;3.63;;
40176;SDS011;31511;46.176;9.874;2022-08-03T06:18:30;7.90;;;4.05;;
40176;SDS011;31511;46.176;9.874;2022-08-03T06:21:15;5.47;;;3.42;;
40176;SDS011;31511;46.176;9.874;2022-08-03T06:23:59;5.38;;;3.83;;
40176;SDS011;31511;46.176;9.874;2022-08-03T06:26:44;3.58;;;2.63;;
40176;SDS011;31511;46.176;9.874;2022-08-03T06:29:30;3.00;;;2.67;;
40176;SDS011;31511;46.176;9.874;2022-08-03T06:32:15;2.85;;;2.55;;
40176;SDS011;31511;46.176;9.874;2022-08-03T06:34:59;5.60;;;2.95;;
40176;SDS011;31511;46.176;9.874;2022-08-03T06:37:44;4.25;;;2.80;;
40176;SDS011;31511;46.176;9.874;2022-08-03T06:40:30;5.80;;;2.97;;
40176;SDS011;31511;46.176;9.874;2022-08-03T06:43:18;3.70;;;2.60;;
40176;SDS011;31511;46.176;9.874;2022-08-03T06:46:04;7.20;;;3.05;;
40176;SDS011;31511;46.176;9.874;2022-08-03T06:48:48;3.80;;;3.42;;
40176;SDS011;31511;46.176;9.874;2022-08-03T06:51:33;6.40;;;3.25;;
40176;SDS011;31511;46.176;9.874;2022-08-03T06:54:17;3.50;;;2.63;;
40176;SDS011;31511;46.176;9.874;2022-08-03T06:57:04;2.47;;;2.28;;
40176;SDS011;31511;46.176;9.874;2022-08-03T06:59:51;4.38;;;3.20;;
40176;SDS011;31511;46.176;9.874;2022-08-03T07:02:35;3.85;;;3.03;;
40176;SDS011;31511;46.176;9.874;2022-08-03T07:05:20;3.80;;;2.95;;
40176;SDS011;31511;46.176;9.874;2022-08-03T07:08:05;4.10;;;2.95;;
40176;SDS011;31511;46.176;9.874;2022-08-03T07:10:50;3.03;;;2.45;;
40176;SDS011;31511;46.176;9.874;2022-08-03T07:13:35;4.93;;;2.90;;
40176;SDS011;31511;46.176;9.874;2022-08-03T07:16:21;3.80;;;2.35;;
40176;SDS011;31511;46.176;9.874;2022-08-03T07:19:07;5.85;;;2.90;;
40176;SDS011;31511;46.176;9.874;2022-08-03T07:21:52;3.95;;;2.88;;
40176;SDS011;31511;46.176;9.874;2022-08-03T07:24:37;6.60;;;2.80;;
40176;SDS011;31511;46.176;9.874;2022-08-03T07:27:23;4.35;;;2.83;;
40176;SDS011;31511;46.176;9.874;2022-08-03T07:30:10;4.18;;;2.40;;
40176;SDS011;31511;46.176;9.874;2022-08-03T07:32:55;3.55;;;2.38;;
40176;SDS011;31511;46.176;9.874;2022-08-03T07:35:40;6.80;;;2.67;;
40176;SDS011;31511;46.176;9.874;2022-08-03T07:38:26;2.78;;;2.47;;
40176;SDS011;31511;46.176;9.874;2022-08-03T07:41:13;3.85;;;2.65;;
40176;SDS011;31511;46.176;9.874;2022-08-03T07:43:58;3.90;;;2.78;;
40176;SDS011;31511;46.176;9.874;2022-08-03T07:46:43;4.57;;;2.40;;
40176;SDS011;31511;46.176;9.874;2022-08-03T07:49:29;3.60;;;2.72;;
40176;SDS011;31511;46.176;9.874;2022-08-03T07:52:14;5.20;;;3.53;;
40176;SDS011;31511;46.176;9.874;2022-08-03T07:55:19;4.28;;;3.00;;
40176;SDS011;31511;46.176;9.874;2022-08-03T07:58:09;2.58;;;2.38;;
40176;SDS011;31511;46.176;9.874;2022-08-03T08:01:01;2.95;;;2.67;;
40176;SDS011;31511;46.176;9.874;2022-08-03T08:03:46;4.20;;;3.20;;
40176;SDS011;31511;46.176;9.874;2022-08-03T08:06:30;3.47;;;2.60;;
40176;SDS011;31511;46.176;9.874;2022-08-03T08:09:16;3.10;;;2.80;;
40176;SDS011;31511;46.176;9.874;2022-08-03T08:12:01;3.17;;;2.85;;
40176;SDS011;31511;46.176;9.874;2022-08-03T08:14:45;3.97;;;2.63;;
40176;SDS011;31511;46.176;9.874;2022-08-03T08:17:40;4.47;;;2.97;;
40176;SDS011;31511;46.176;9.874;2022-08-03T08:20:28;4.72;;;2.72;;
40176;SDS011;31511;46.176;9.874;2022-08-03T08:23:13;3.72;;;2.75;;
40176;SDS011;31511;46.176;9.874;2022-08-03T08:25:58;3.63;;;2.70;;
40176;SDS011;31511;46.176;9.874;2022-08-03T08:28:43;2.78;;;2.45;;
40176;SDS011;31511;46.176;9.874;2022-08-03T08:31:29;3.67;;;2.78;;
40176;SDS011;31511;46.176;9.874;2022-08-03T08:34:14;5.22;;;2.50;;
40176;SDS011;31511;46.176;9.874;2022-08-03T08:36:59;6.50;;;2.80;;
40176;SDS011;31511;46.176;9.874;2022-08-03T08:39:44;6.20;;;2.95;;
40176;SDS011;31511;46.176;9.874;2022-08-03T08:42:30;3.35;;;2.45;;
40176;SDS011;31511;46.176;9.874;2022-08-03T08:45:14;6.20;;;2.70;;
40176;SDS011;31511;46.176;9.874;2022-08-03T08:48:01;3.40;;;2.42;;
40176;SDS011;31511;46.176;9.874;2022-08-03T08:50:52;3.83;;;2.08;;
40176;SDS011;31511;46.176;9.874;2022-08-03T08:53:37;15.07;;;5.18;;
40176;SDS011;31511;46.176;9.874;2022-08-03T08:56:24;4.85;;;2.75;;
40176;SDS011;31511;46.176;9.874;2022-08-03T08:59:11;6.18;;;2.53;;
40176;SDS011;31511;46.176;9.874;2022-08-03T09:01:57;4.63;;;2.35;;
40176;SDS011;31511;46.176;9.874;2022-08-03T09:04:42;5.15;;;2.60;;
40176;SDS011;31511;46.176;9.874;2022-08-03T09:07:29;3.20;;;2.53;;
40176;SDS011;31511;46.176;9.874;2022-08-03T09:10:15;5.55;;;2.58;;
40176;SDS011;31511;46.176;9.874;2022-08-03T09:13:02;4.82;;;2.60;;
40176;SDS011;31511;46.176;9.874;2022-08-03T09:15:47;3.25;;;2.72;;
40176;SDS011;31511;46.176;9.874;2022-08-03T09:18:32;3.80;;;2.35;;
40176;SDS011;31511;46.176;9.874;2022-08-03T09:21:18;3.53;;;2.22;;
40176;SDS011;31511;46.176;9.874;2022-08-03T09:24:05;4.25;;;2.55;;
40176;SDS011;31511;46.176;9.874;2022-08-03T09:26:51;4.95;;;2.78;;
40176;SDS011;31511;46.176;9.874;2022-08-03T09:29:36;4.90;;;2.30;;
40176;SDS011;31511;46.176;9.874;2022-08-03T09:32:23;5.35;;;2.90;;
40176;SDS011;31511;46.176;9.874;2022-08-03T09:35:09;3.05;;;2.30;;
40176;SDS011;31511;46.176;9.874;2022-08-03T09:38:17;3.28;;;2.35;;
40176;SDS011;31511;46.176;9.874;2022-08-03T09:41:00;6.75;;;2.60;;
40176;SDS011;31511;46.176;9.874;2022-08-03T09:43:45;5.30;;;3.33;;
40176;SDS011;31511;46.176;9.874;2022-08-03T09:46:30;3.42;;;2.70;;
40176;SDS011;31511;46.176;9.874;2022-08-03T09:49:16;3.58;;;2.70;;
40176;SDS011;31511;46.176;9.874;2022-08-03T09:52:16;4.53;;;2.22;;
40176;SDS011;31511;46.176;9.874;2022-08-03T09:55:02;5.07;;;2.97;;
40176;SDS011;31511;46.176;9.874;2022-08-03T09:57:51;3.80;;;2.80;;
40176;SDS011;31511;46.176;9.874;2022-08-03T10:03:35;8.93;;;2.53;;
40176;SDS011;31511;46.176;9.874;2022-08-03T10:06:22;4.85;;;2.20;;
40176;SDS011;31511;46.176;9.874;2022-08-03T10:09:10;3.42;;;2.72;;
40176;SDS011;31511;46.176;9.874;2022-08-03T10:11:56;3.17;;;2.58;;
40176;SDS011;31511;46.176;9.874;2022-08-03T10:14:42;3.53;;;2.22;;
40176;SDS011;31511;46.176;9.874;2022-08-03T10:17:30;5.32;;;2.50;;
40176;SDS011;31511;46.176;9.874;2022-08-03T10:20:15;6.72;;;2.58;;
40176;SDS011;31511;46.176;9.874;2022-08-03T10:22:59;4.70;;;2.28;;
40176;SDS011;31511;46.176;9.874;2022-08-03T10:25:46;2.53;;;1.90;;
40176;SDS011;31511;46.176;9.874;2022-08-03T10:28:36;2.95;;;2.58;;
40176;SDS011;31511;46.176;9.874;2022-08-03T10:31:23;2.80;;;2.28;;
40176;SDS011;31511;46.176;9.874;2022-08-03T10:34:30;3.00;;;1.77;;
40176;SDS011;31511;46.176;9.874;2022-08-03T10:37:17;8.98;;;2.30;;
40176;SDS011;31511;46.176;9.874;2022-08-03T10:40:03;2.85;;;1.98;;
40176;SDS011;31511;46.176;9.874;2022-08-03T10:42:50;6.47;;;2.20;;
40176;SDS011;31511;46.176;9.874;2022-08-03T10:45:35;3.60;;;2.08;;
40176;SDS011;31511;46.176;9.874;2022-08-03T10:48:24;4.60;;;2.08;;
40176;SDS011;31511;46.176;9.874;2022-08-03T10:51:11;2.50;;;1.80;;
40176;SDS011;31511;46.176;9.874;2022-08-03T10:53:58;2.85;;;2.17;;
40176;SDS011;31511;46.176;9.874;2022-08-03T10:56:43;3.15;;;1.63;;
40176;SDS011;31511;46.176;9.874;2022-08-03T11:05:37;2.85;;;2.17;;
40176;SDS011;31511;46.176;9.874;2022-08-03T11:08:24;2.15;;;1.88;;
40176;SDS011;31511;46.176;9.874;2022-08-03T11:14:07;4.43;;;1.40;;
40176;SDS011;31511;46.176;9.874;2022-08-03T11:17:06;3.38;;;1.95;;
40176;SDS011;31511;46.176;9.874;2022-08-03T11:19:52;5.82;;;2.00;;
40176;SDS011;31511;46.176;9.874;2022-08-03T11:22:58;4.28;;;1.90;;
40176;SDS011;31511;46.176;9.874;2022-08-03T11:28:47;4.35;;;1.65;;
40176;SDS011;31511;46.176;9.874;2022-08-03T11:34:16;5.13;;;1.92;;
40176;SDS011;31511;46.176;9.874;2022-08-03T11:37:21;2.35;;;1.98;;
40176;SDS011;31511;46.176;9.874;2022-08-03T11:40:08;2.70;;;2.08;;
40176;SDS011;31511;46.176;9.874;2022-08-03T11:46:09;2.33;;;1.65;;
40176;SDS011;31511;46.176;9.874;2022-08-03T11:51:45;2.85;;;1.58;;
40176;SDS011;31511;46.176;9.874;2022-08-03T11:54:30;6.10;;;1.88;;
40176;SDS011;31511;46.176;9.874;2022-08-03T11:57:27;3.22;;;1.67;;
40176;SDS011;31511;46.176;9.874;2022-08-03T12:03:09;6.20;;;1.75;;
40176;SDS011;31511;46.176;9.874;2022-08-03T12:05:58;4.50;;;1.42;;
40176;SDS011;31511;46.176;9.874;2022-08-03T12:08:47;7.68;;;1.25;;
40176;SDS011;31511;46.176;9.874;2022-08-03T12:11:32;4.93;;;1.80;;
40176;SDS011;31511;46.176;9.874;2022-08-03T12:14:17;5.97;;;1.60;;
40176;SDS011;31511;46.176;9.874;2022-08-03T12:17:02;2.47;;;1.40;;
40176;SDS011;31511;46.176;9.874;2022-08-03T12:19:48;2.63;;;1.25;;
40176;SDS011;31511;46.176;9.874;2022-08-03T12:22:36;3.03;;;1.52;;
40176;SDS011;31511;46.176;9.874;2022-08-03T12:25:23;7.28;;;1.75;;
40176;SDS011;31511;46.176;9.874;2022-08-03T12:28:14;1.65;;;1.38;;
40176;SDS011;31511;46.176;9.874;2022-08-03T12:31:03;3.83;;;1.30;;
40176;SDS011;31511;46.176;9.874;2022-08-03T12:33:59;3.22;;;1.63;;
40176;SDS011;31511;46.176;9.874;2022-08-03T12:36:49;3.47;;;1.55;;
40176;SDS011;31511;46.176;9.874;2022-08-03T12:39:35;2.30;;;1.40;;
40176;SDS011;31511;46.176;9.874;2022-08-03T12:42:28;2.95;;;1.58;;
40176;SDS011;31511;46.176;9.874;2022-08-03T12:45:18;1.55;;;1.38;;
40176;SDS011;31511;46.176;9.874;2022-08-03T12:48:03;4.05;;;1.48;;
40176;SDS011;31511;46.176;9.874;2022-08-03T12:50:51;6.82;;;1.70;;
40176;SDS011;31511;46.176;9.874;2022-08-03T12:53:51;2.42;;;1.33;;
40176;SDS011;31511;46.176;9.874;2022-08-03T12:56:55;1.50;;;1.30;;
40176;SDS011;31511;46.176;9.874;2022-08-03T12:59:40;1.90;;;1.50;;
40176;SDS011;31511;46.176;9.874;2022-08-03T13:02:27;4.00;;;1.58;;
40176;SDS011;31511;46.176;9.874;2022-08-03T13:05:14;6.18;;;2.13;;
40176;SDS011;31511;46.176;9.874;2022-08-03T13:07:59;6.57;;;1.92;;
40176;SDS011;31511;46.176;9.874;2022-08-03T13:10:44;3.90;;;1.90;;
40176;SDS011;31511;46.176;9.874;2022-08-03T13:13:38;2.03;;;1.30;;
40176;SDS011;31511;46.176;9.874;2022-08-03T13:16:24;1.88;;;1.48;;
40176;SDS011;31511;46.176;9.874;2022-08-03T13:19:10;1.85;;;1.30;;
40176;SDS011;31511;46.176;9.874;2022-08-03T13:21:56;3.38;;;1.15;;
40176;SDS011;31511;46.176;9.874;2022-08-03T13:24:41;3.75;;;1.80;;
40176;SDS011;31511;46.176;9.874;2022-08-03T13:27:28;7.40;;;1.40;;
40176;SDS011;31511;46.176;9.874;2022-08-03T13:30:14;5.63;;;1.50;;
40176;SDS011;31511;46.176;9.874;2022-08-03T13:32:59;1.35;;;1.10;;
40176;SDS011;31511;46.176;9.874;2022-08-03T13:35:44;1.67;;;1.17;;
40176;SDS011;31511;46.176;9.874;2022-08-03T13:38:29;4.65;;;1.25;;
40176;SDS011;31511;46.176;9.874;2022-08-03T13:41:15;2.33;;;1.33;;
40176;SDS011;31511;46.176;9.874;2022-08-03T13:44:00;2.40;;;1.23;;
40176;SDS011;31511;46.176;9.874;2022-08-03T13:46:45;3.35;;;1.55;;
40176;SDS011;31511;46.176;9.874;2022-08-03T13:49:31;3.10;;;1.75;;
40176;SDS011;31511;46.176;9.874;2022-08-03T13:52:16;5.03;;;1.75;;
40176;SDS011;31511;46.176;9.874;2022-08-03T13:55:01;5.20;;;2.15;;
40176;SDS011;31511;46.176;9.874;2022-08-03T13:57:46;2.20;;;1.75;;
40176;SDS011;31511;46.176;9.874;2022-08-03T14:00:31;1.83;;;1.35;;
40176;SDS011;31511;46.176;9.874;2022-08-03T14:03:15;2.05;;;1.20;;
40176;SDS011;31511;46.176;9.874;2022-08-03T14:06:00;3.15;;;1.40;;
40176;SDS011;31511;46.176;9.874;2022-08-03T14:08:44;1.92;;;1.30;;
40176;SDS011;31511;46.176;9.874;2022-08-03T14:11:30;2.60;;;1.55;;
40176;SDS011;31511;46.176;9.874;2022-08-03T14:14:15;1.70;;;1.50;;
40176;SDS011;31511;46.176;9.874;2022-08-03T14:17:00;2.40;;;1.35;;
40176;SDS011;31511;46.176;9.874;2022-08-03T14:19:44;2.55;;;1.33;;
40176;SDS011;31511;46.176;9.874;2022-08-03T14:22:30;1.45;;;1.02;;
40176;SDS011;31511;46.176;9.874;2022-08-03T14:25:15;2.65;;;1.40;;
40176;SDS011;31511;46.176;9.874;2022-08-03T14:28:00;1.83;;;1.20;;
40176;SDS011;31511;46.176;9.874;2022-08-03T14:30:45;3.28;;;1.60;;
40176;SDS011;31511;46.176;9.874;2022-08-03T14:33:30;5.22;;;1.58;;
40176;SDS011;31511;46.176;9.874;2022-08-03T14:36:15;4.45;;;1.60;;
40176;SDS011;31511;46.176;9.874;2022-08-03T14:39:00;6.40;;;1.70;;
40176;SDS011;31511;46.176;9.874;2022-08-03T14:41:45;2.97;;;1.30;;
40176;SDS011;31511;46.176;9.874;2022-08-03T14:44:30;3.17;;;1.60;;
40176;SDS011;31511;46.176;9.874;2022-08-03T14:47:15;1.50;;;1.30;;
40176;SDS011;31511;46.176;9.874;2022-08-03T14:50:00;2.10;;;1.38;;
40176;SDS011;31511;46.176;9.874;2022-08-03T14:52:47;1.30;;;1.20;;
40176;SDS011;31511;46.176;9.874;2022-08-03T14:55:32;2.25;;;1.42;;
40176;SDS011;31511;46.176;9.874;2022-08-03T14:58:21;2.42;;;1.52;;
40176;SDS011;31511;46.176;9.874;2022-08-03T15:01:11;2.10;;;1.50;;
40176;SDS011;31511;46.176;9.874;2022-08-03T15:03:56;2.83;;;1.40;;
40176;SDS011;31511;46.176;9.874;2022-08-03T15:06:41;1.75;;;1.60;;
40176;SDS011;31511;46.176;9.874;2022-08-03T15:09:27;1.73;;;1.20;;
40176;SDS011;31511;46.176;9.874;2022-08-03T15:12:14;5.95;;;1.58;;
40176;SDS011;31511;46.176;9.874;2022-08-03T15:14:59;2.00;;;1.40;;
40176;SDS011;31511;46.176;9.874;2022-08-03T15:17:44;1.92;;;1.35;;
40176;SDS011;31511;46.176;9.874;2022-08-03T15:20:29;2.45;;;1.52;;
40176;SDS011;31511;46.176;9.874;2022-08-03T15:23:15;2.00;;;1.48;;
40176;SDS011;31511;46.176;9.874;2022-08-03T15:26:00;1.38;;;1.27;;
40176;SDS011;31511;46.176;9.874;2022-08-03T15:28:45;6.03;;;1.13;;
40176;SDS011;31511;46.176;9.874;2022-08-03T15:31:29;4.32;;;1.60;;
40176;SDS011;31511;46.176;9.874;2022-08-03T15:34:14;3.53;;;1.40;;
40176;SDS011;31511;46.176;9.874;2022-08-03T15:37:00;4.43;;;1.40;;
40176;SDS011;31511;46.176;9.874;2022-08-03T15:39:45;2.10;;;1.33;;
40176;SDS011;31511;46.176;9.874;2022-08-03T15:42:31;7.30;;;1.63;;
40176;SDS011;31511;46.176;9.874;2022-08-03T15:45:16;2.05;;;1.30;;
40176;SDS011;31511;46.176;9.874;2022-08-03T15:48:01;2.40;;;1.33;;
40176;SDS011;31511;46.176;9.874;2022-08-03T15:50:45;2.05;;;1.30;;
40176;SDS011;31511;46.176;9.874;2022-08-03T15:53:31;3.30;;;1.50;;
40176;SDS011;31511;46.176;9.874;2022-08-03T15:56:16;2.45;;;1.98;;
40176;SDS011;31511;46.176;9.874;2022-08-03T15:59:00;5.60;;;1.20;;
40176;SDS011;31511;46.176;9.874;2022-08-03T16:01:45;3.20;;;1.50;;
40176;SDS011;31511;46.176;9.874;2022-08-03T16:04:31;2.10;;;1.30;;
40176;SDS011;31511;46.176;9.874;2022-08-03T16:07:16;2.35;;;1.35;;
40176;SDS011;31511;46.176;9.874;2022-08-03T16:10:21;3.58;;;1.83;;
40176;SDS011;31511;46.176;9.874;2022-08-03T16:13:11;4.22;;;1.30;;
40176;SDS011;31511;46.176;9.874;2022-08-03T16:15:57;1.15;;;1.05;;
40176;SDS011;31511;46.176;9.874;2022-08-03T16:18:42;1.35;;;1.00;;
40176;SDS011;31511;46.176;9.874;2022-08-03T16:21:28;2.25;;;1.13;;
40176;SDS011;31511;46.176;9.874;2022-08-03T16:24:14;3.33;;;1.13;;
40176;SDS011;31511;46.176;9.874;2022-08-03T16:27:01;2.60;;;1.90;;
40176;SDS011;31511;46.176;9.874;2022-08-03T16:29:46;1.50;;;1.10;;
40176;SDS011;31511;46.176;9.874;2022-08-03T16:32:31;1.30;;;1.20;;
40176;SDS011;31511;46.176;9.874;2022-08-03T16:35:16;1.80;;;1.27;;
40176;SDS011;31511;46.176;9.874;2022-08-03T16:38:02;1.73;;;1.30;;
40176;SDS011;31511;46.176;9.874;2022-08-03T16:40:47;1.60;;;1.25;;
40176;SDS011;31511;46.176;9.874;2022-08-03T16:43:34;1.65;;;1.30;;
40176;SDS011;31511;46.176;9.874;2022-08-03T16:46:20;1.60;;;1.25;;
40176;SDS011;31511;46.176;9.874;2022-08-03T16:49:06;2.92;;;1.10;;
40176;SDS011;31511;46.176;9.874;2022-08-03T16:51:51;1.58;;;1.20;;
40176;SDS011;31511;46.176;9.874;2022-08-03T16:54:36;2.88;;;1.10;;
40176;SDS011;31511;46.176;9.874;2022-08-03T16:57:22;2.67;;;1.40;;
40176;SDS011;31511;46.176;9.874;2022-08-03T17:00:10;1.75;;;1.25;;
40176;SDS011;31511;46.176;9.874;2022-08-03T17:02:56;1.67;;;1.58;;
40176;SDS011;31511;46.176;9.874;2022-08-03T17:05:43;4.93;;;1.63;;
40176;SDS011;31511;46.176;9.874;2022-08-03T17:08:30;1.65;;;1.35;;
40176;SDS011;31511;46.176;9.874;2022-08-03T17:11:15;1.40;;;1.30;;
40176;SDS011;31511;46.176;9.874;2022-08-03T17:13:59;2.38;;;1.20;;
40176;SDS011;31511;46.176;9.874;2022-08-03T17:16:44;1.70;;;1.30;;
40176;SDS011;31511;46.176;9.874;2022-08-03T17:19:30;3.92;;;1.20;;
40176;SDS011;31511;46.176;9.874;2022-08-03T17:22:18;5.30;;;1.35;;
40176;SDS011;31511;46.176;9.874;2022-08-03T17:25:05;2.35;;;1.42;;
40176;SDS011;31511;46.176;9.874;2022-08-03T17:27:51;2.97;;;1.45;;